AFL1010 URWW-UWKD
Flight info
| Callsign | AFL1010 |
|---|---|
| Flight time | N/A |
| Altitude | 37000 |
| Route | RODUN1E RODUN R807 UROBO P135 DAFOS T789 SONUM SONUM1T |
| Aircraft | A20N/M-SDE2E3FGHIRWXY/LB1 |
Departure
| Time | 2026-05-07 16:54 |
|---|---|
| Airport | Volgograd International Airport (URWW) |
Arrival
| Time | N/A |
|---|---|
| Airport | Kazan International Airport (UWKD) |
| Time | Latitude | Longitude | Altitude | Speed | Heading |
|---|---|---|---|---|---|
| 2026-05-07 16:44 | 48.78988 | 44.35169 | 473 ft | 1 kts | 339° |
| 2026-05-07 16:45 | 48.78980 | 44.35173 | 468 ft | 1 kts | 338° |
| 2026-05-07 16:45 | 48.78973 | 44.35177 | 468 ft | 1 kts | 336° |
| 2026-05-07 16:45 | 48.78963 | 44.35184 | 472 ft | 2 kts | 329° |
| 2026-05-07 16:45 | 48.78951 | 44.35198 | 471 ft | 2 kts | 306° |
| 2026-05-07 16:46 | 48.78945 | 44.35217 | 472 ft | 2 kts | 273° |
| 2026-05-07 16:46 | 48.78945 | 44.35227 | 473 ft | 0 kts | 257° |
| 2026-05-07 16:50 | 48.78941 | 44.35207 | 472 ft | 2 kts | 255° |
| 2026-05-07 16:50 | 48.78927 | 44.35159 | 473 ft | 1 kts | 237° |
| 2026-05-07 16:50 | 48.78917 | 44.35140 | 471 ft | 6 kts | 231° |
| 2026-05-07 16:50 | 48.78863 | 44.35124 | 470 ft | 11 kts | 167° |
| 2026-05-07 16:51 | 48.78770 | 44.35167 | 475 ft | 17 kts | 162° |
| 2026-05-07 16:51 | 48.78720 | 44.35192 | 468 ft | 7 kts | 162° |
| 2026-05-07 16:51 | 48.78698 | 44.35202 | 474 ft | 4 kts | 163° |
| 2026-05-07 16:51 | 48.78651 | 44.35225 | 474 ft | 10 kts | 161° |
| 2026-05-07 16:52 | 48.78579 | 44.35237 | 473 ft | 13 kts | 198° |
| 2026-05-07 16:52 | 48.78542 | 44.35183 | 472 ft | 0 kts | 240° |
| 2026-05-07 16:54 | 48.78535 | 44.35164 | 474 ft | 17 kts | 240° |
| 2026-05-07 16:54 | 48.78288 | 44.34369 | 461 ft | 141 kts | 244° |
| 2026-05-07 16:54 | 48.77748 | 44.32837 | 1203 ft | 173 kts | 240° |
| 2026-05-07 16:54 | 48.77108 | 44.31151 | 2410 ft | 198 kts | 243° |
| 2026-05-07 16:55 | 48.76436 | 44.29107 | 3243 ft | 239 kts | 246° |
| 2026-05-07 16:55 | 48.75693 | 44.26707 | 3660 ft | 262 kts | 246° |
| 2026-05-07 16:55 | 48.74911 | 44.24174 | 3980 ft | 267 kts | 246° |
| 2026-05-07 16:55 | 48.74267 | 44.21529 | 4481 ft | 268 kts | 263° |
| 2026-05-07 16:56 | 48.74392 | 44.18754 | 5116 ft | 265 kts | 289° |
| 2026-05-07 16:56 | 48.75311 | 44.16375 | 5738 ft | 262 kts | 316° |
| 2026-05-07 16:56 | 48.78600 | 44.14643 | 6979 ft | 261 kts | 8° |
| 2026-05-07 16:57 | 48.80284 | 44.15676 | 7603 ft | 265 kts | 33° |
| 2026-05-07 16:57 | 48.81754 | 44.17393 | 8229 ft | 267 kts | 36° |
| 2026-05-07 16:57 | 48.83201 | 44.19131 | 8858 ft | 269 kts | 36° |
| 2026-05-07 16:57 | 48.84694 | 44.20880 | 9512 ft | 272 kts | 35° |
| 2026-05-07 16:58 | 48.86218 | 44.22618 | 10146 ft | 276 kts | 34° |
| 2026-05-07 16:58 | 48.87858 | 44.24451 | 10774 ft | 308 kts | 34° |
| 2026-05-07 16:58 | 48.89644 | 44.26429 | 11403 ft | 322 kts | 34° |
| 2026-05-07 16:58 | 48.91447 | 44.28426 | 12029 ft | 326 kts | 34° |
| 2026-05-07 16:59 | 48.93287 | 44.30467 | 12667 ft | 328 kts | 34° |
| 2026-05-07 16:59 | 48.95142 | 44.32527 | 13333 ft | 331 kts | 34° |
| 2026-05-07 16:59 | 48.97010 | 44.34605 | 13976 ft | 334 kts | 35° |
| 2026-05-07 16:59 | 48.98880 | 44.36689 | 14576 ft | 337 kts | 35° |
| 2026-05-07 17:00 | 49.00789 | 44.38817 | 15183 ft | 340 kts | 35° |
| 2026-05-07 17:00 | 49.02711 | 44.40962 | 15799 ft | 343 kts | 35° |
| 2026-05-07 17:00 | 49.04651 | 44.43129 | 16449 ft | 348 kts | 35° |
| 2026-05-07 17:00 | 49.06599 | 44.45308 | 16820 ft | 351 kts | 35° |
| 2026-05-07 17:01 | 49.08573 | 44.47518 | 16955 ft | 352 kts | 35° |
| 2026-05-07 17:01 | 49.10553 | 44.49736 | 16971 ft | 352 kts | 35° |
| 2026-05-07 17:01 | 49.12529 | 44.51953 | 16972 ft | 352 kts | 35° |
| 2026-05-07 17:01 | 49.14482 | 44.54145 | 16962 ft | 352 kts | 35° |
| 2026-05-07 17:02 | 49.16466 | 44.56374 | 16968 ft | 353 kts | 35° |
| 2026-05-07 17:02 | 49.18445 | 44.58600 | 16968 ft | 353 kts | 35° |
| 2026-05-07 17:02 | 49.20422 | 44.60825 | 16969 ft | 353 kts | 35° |
| 2026-05-07 17:02 | 49.22382 | 44.63034 | 16969 ft | 353 kts | 35° |
| 2026-05-07 17:03 | 49.24384 | 44.65291 | 17268 ft | 359 kts | 35° |